Time;durP1;ratioP1;P1;durP2;ratioP2;P2;SDS_P1;SDS_P2;PMS_P1;PMS_P2;Temp;Humidity;BMP_temperature;BMP_pressure;BME280_temperature;BME280_humidity;BME280_pressure;Samples;Min_cycle;Max_cycle;Signal;HPM_P1;HPM_P2
2021/04/20 00:01:46;;;;;;;18.37;12.60;;;;;;;10.63;48.45;100096.19;115362;1197;103024;-79
2021/04/20 00:04:13;;;;;;;19.65;12.25;;;;;;;10.59;48.57;100091.95;115348;1200;103031;-79
2021/04/20 00:06:40;;;;;;;18.80;12.40;;;;;;;10.56;48.46;100095.52;115380;1199;102996;-80
2021/04/20 00:09:09;;;;;;;18.87;12.93;;;;;;;10.51;48.69;100091.38;115341;1199;103577;-79
2021/04/20 00:11:37;;;;;;;19.50;13.30;;;;;;;10.47;49.06;100092.40;115353;1199;103111;-79
2021/04/20 00:14:06;;;;;;;19.00;13.85;;;;;;;10.41;49.22;100089.98;115362;1199;103185;-80
2021/04/20 00:16:33;;;;;;;21.43;14.47;;;;;;;10.36;49.35;100094.50;115438;1199;103053;-78
2021/04/20 00:19:03;;;;;;;20.57;14.43;;;;;;;10.32;49.41;100092.91;115313;1199;103043;-79
2021/04/20 00:21:30;;;;;;;18.73;12.70;;;;;;;10.24;49.64;100091.42;115396;1198;102985;-78
2021/04/20 00:23:57;;;;;;;17.77;13.17;;;;;;;10.20;49.49;100084.55;115344;1197;103024;-79
2021/04/20 00:26:24;;;;;;;18.83;12.60;;;;;;;10.16;49.94;100090.77;115344;1199;103063;-78
2021/04/20 00:28:52;;;;;;;19.90;13.93;;;;;;;10.11;50.47;100090.08;115320;1198;103168;-79
2021/04/20 00:31:19;;;;;;;19.80;12.53;;;;;;;10.09;50.21;100085.83;115328;1199;103089;-78
2021/04/20 00:33:46;;;;;;;18.63;11.63;;;;;;;10.03;50.14;100080.80;115313;1199;103079;-79
2021/04/20 00:36:13;;;;;;;16.37;11.53;;;;;;;10.00;50.31;100077.39;115347;1199;103012;-78
2021/04/20 00:38:41;;;;;;;13.53;9.20;;;;;;;9.98;50.28;100073.13;115495;1198;103031;-79
2021/04/20 00:41:11;;;;;;;14.05;10.05;;;;;;;9.98;50.48;100091.38;115355;1199;103037;-78
2021/04/20 00:43:43;;;;;;;11.60;8.80;;;;;;;9.95;50.44;100084.51;115282;1199;103001;-79
2021/04/20 00:46:13;;;;;;;12.27;8.90;;;;;;;9.94;50.26;100084.56;115339;1199;103053;-78
2021/04/20 00:48:42;;;;;;;12.27;8.00;;;;;;;9.93;50.19;100090.67;115355;1199;103216;-78
2021/04/20 00:51:12;;;;;;;14.00;9.10;;;;;;;9.90;50.17;100081.21;115616;1199;103097;-78
2021/04/20 00:53:40;;;;;;;13.23;8.43;;;;;;;9.89;50.21;100086.47;115362;1199;102140;-78
2021/04/20 00:56:07;;;;;;;11.27;7.90;;;;;;;9.88;50.23;100082.16;115326;1200;103207;-79
2021/04/20 00:58:35;;;;;;;14.83;9.10;;;;;;;9.85;50.61;100082.23;115612;1200;102859;-79
2021/04/20 01:01:04;;;;;;;11.40;8.23;;;;;;;9.84;50.22;100083.14;115355;1199;103079;-79
2021/04/20 01:03:31;;;;;;;10.37;7.20;;;;;;;9.80;50.42;100071.97;115483;1199;103066;-79
2021/04/20 01:06:00;;;;;;;13.70;8.80;;;;;;;9.80;50.61;100076.33;115339;1200;103046;-79
2021/04/20 01:08:28;;;;;;;11.53;7.33;;;;;;;9.78;50.34;100072.92;115350;1198;103060;-79
2021/04/20 01:10:59;;;;;;;13.50;8.27;;;;;;;9.74;50.30;100072.17;115347;1199;101024;-79
2021/04/20 01:13:29;;;;;;;13.17;8.60;;;;;;;9.73;50.28;100073.08;115414;1199;103033;-80
2021/04/20 01:15:58;;;;;;;12.93;8.07;;;;;;;9.70;50.50;100078.38;115313;1199;103092;-79
2021/04/20 01:18:36;;;;;;;12.40;7.83;;;;;;;9.68;50.52;100074.95;115431;1199;102964;-79
2021/04/20 01:21:11;;;;;;;14.03;9.13;;;;;;;9.64;50.62;100068.99;115347;1199;103027;-79
2021/04/20 01:23:54;;;;;;;11.63;8.00;;;;;;;9.61;50.73;100069.09;115349;1199;102945;-79
2021/04/20 01:26:26;;;;;;;11.77;7.77;;;;;;;9.58;50.51;100068.34;115357;1198;103063;-79
2021/04/20 01:28:56;;;;;;;11.43;8.87;;;;;;;9.56;50.79;100071.00;115315;1197;103168;-78
2021/04/20 01:31:23;;;;;;;11.03;8.43;;;;;;;9.53;51.21;100073.70;115338;1198;103546;-79
2021/04/20 01:33:50;;;;;;;12.20;8.90;;;;;;;9.49;51.38;100074.66;115301;1199;103005;-78
2021/04/20 01:36:20;;;;;;;13.37;9.57;;;;;;;9.44;51.28;100066.15;115309;1199;103123;-80
2021/04/20 01:38:49;;;;;;;13.67;9.37;;;;;;;9.37;51.59;100075.91;115358;1199;103120;-79
2021/04/20 01:41:18;;;;;;;12.07;8.43;;;;;;;9.33;51.40;100063.86;115415;1199;102892;-79
2021/04/20 01:43:46;;;;;;;14.83;8.20;;;;;;;9.31;51.58;100072.61;115391;1198;103458;-79
2021/04/20 01:46:15;;;;;;;10.00;8.13;;;;;;;9.28;51.75;100072.70;115591;1199;103140;-78
2021/04/20 01:48:44;;;;;;;11.10;7.70;;;;;;;9.25;51.77;100070.20;115351;1199;102915;-79
2021/04/20 01:51:13;;;;;;;10.20;7.90;;;;;;;9.23;51.78;100074.60;115403;1199;103440;-78
2021/04/20 01:53:40;;;;;;;11.13;7.77;;;;;;;9.22;51.94;100067.70;115349;1199;103041;-78
2021/04/20 01:56:09;;;;;;;9.90;7.30;;;;;;;9.20;52.03;100069.50;115367;1199;101812;-78
2021/04/20 01:58:38;;;;;;;11.20;7.80;;;;;;;9.19;52.16;100078.20;115360;1199;103014;-79
2021/04/20 02:01:19;;;;;;;12.13;8.17;;;;;;;9.16;52.26;100073.09;115357;1199;103408;-79
2021/04/20 02:03:49;;;;;;;9.87;7.57;;;;;;;9.12;52.36;100067.09;115621;1199;103117;-78
2021/04/20 02:06:17;;;;;;;10.47;7.37;;;;;;;9.10;52.47;100066.30;115432;1199;103037;-78
2021/04/20 02:08:47;;;;;;;10.80;7.47;;;;;;;9.07;52.29;100062.03;115420;1198;103075;-79
2021/04/20 02:11:17;;;;;;;11.00;7.50;;;;;;;9.05;52.37;100066.44;115364;1199;103576;-79
2021/04/20 02:13:45;;;;;;;9.80;6.70;;;;;;;9.03;52.13;100064.78;115326;1199;103040;-79
2021/04/20 02:16:14;;;;;;;10.97;6.77;;;;;;;9.02;52.24;100063.92;115356;1199;103104;-78
2021/04/20 02:18:53;;;;;;;13.80;7.77;;;;;;;8.99;52.36;100064.02;115298;1199;102989;-79
2021/04/20 02:21:20;;;;;;;12.73;7.40;;;;;;;8.98;52.70;100066.67;115326;1200;103034;-78
2021/04/20 02:23:49;;;;;;;11.17;8.10;;;;;;;8.96;52.66;100071.88;115339;1199;103293;-79
2021/04/20 02:26:26;;;;;;;15.67;8.93;;;;;;;8.93;52.95;100071.97;115431;1199;103089;-79
2021/04/20 02:29:03;;;;;;;14.15;8.90;;;;;;;8.90;52.91;100072.06;115445;1199;103072;-78
2021/04/20 02:31:38;;;;;;;12.60;9.70;;;;;;;8.87;53.40;100068.70;115352;1198;103130;-79
2021/04/20 02:34:07;;;;;;;14.93;9.13;;;;;;;8.81;53.53;100066.28;115373;1199;103092;-79
2021/04/20 02:36:42;;;;;;;14.60;9.70;;;;;;;8.77;53.45;100071.55;115420;1199;104383;-79
2021/04/20 02:39:12;;;;;;;13.67;10.13;;;;;;;8.72;53.61;100064.77;115353;1199;102987;-78
2021/04/20 02:41:40;;;;;;;15.60;10.23;;;;;;;8.66;53.89;100064.95;115364;1199;103101;-79
2021/04/20 02:44:09;;;;;;;15.10;10.00;;;;;;;8.61;54.24;100059.00;115378;1200;103011;-78
2021/04/20 02:46:38;;;;;;;13.60;9.80;;;;;;;8.57;54.37;100065.19;115436;1199;103034;-78
2021/04/20 02:49:06;;;;;;;11.93;9.77;;;;;;;8.53;54.72;100071.37;115315;1197;102852;-78
2021/04/20 02:51:35;;;;;;;15.23;10.07;;;;;;;8.49;54.85;100068.00;115589;1199;103456;-79
2021/04/20 02:54:03;;;;;;;14.53;10.07;;;;;;;8.44;54.84;100062.94;115549;1199;103691;-78
2021/04/20 02:56:31;;;;;;;16.27;11.00;;;;;;;8.39;55.19;100062.17;115434;1199;103159;-78
2021/04/20 02:59:00;;;;;;;13.13;10.27;;;;;;;8.35;55.35;100064.91;115393;1199;103061;-78
2021/04/20 03:01:31;;;;;;;16.67;11.00;;;;;;;8.29;55.33;100065.89;115543;1199;103143;-77
2021/04/20 03:03:59;;;;;;;15.43;10.83;;;;;;;8.25;56.14;100059.05;115318;1198;103133;-78
2021/04/20 03:06:26;;;;;;;16.00;11.40;;;;;;;8.20;55.55;100055.72;115397;1197;103101;-78
2021/04/20 03:08:53;;;;;;;15.37;11.00;;;;;;;8.14;55.77;100058.48;115612;1198;103143;-79
2021/04/20 03:11:23;;;;;;;16.70;11.30;;;;;;;8.08;55.94;100058.64;115386;1199;103041;-79
2021/04/20 03:13:51;;;;;;;16.43;11.73;;;;;;;8.03;56.43;100056.14;115397;1198;102989;-79
2021/04/20 03:16:29;;;;;;;13.90;10.47;;;;;;;7.98;56.48;100055.41;115565;1198;103164;-79
2021/04/20 03:18:58;;;;;;;15.63;10.90;;;;;;;7.95;56.58;100057.23;115408;1197;103108;-78
2021/04/20 03:21:26;;;;;;;18.47;11.40;;;;;;;7.91;57.00;100048.67;115358;1199;103104;-79
2021/04/20 03:23:56;;;;;;;17.10;10.87;;;;;;;7.88;57.18;100044.38;115394;1199;102980;-78
2021/04/20 03:26:32;;;;;;;15.10;11.60;;;;;;;7.85;57.37;100054.84;115334;1199;103151;-78
2021/04/20 03:29:02;;;;;;;18.80;12.03;;;;;;;7.85;57.14;100048.80;115347;1198;103082;-78
2021/04/20 03:31:30;;;;;;;15.73;10.93;;;;;;;7.79;57.18;100048.95;115535;1198;103748;-79
2021/04/20 03:34:32;;;;;;;18.60;11.47;;;;;;;7.76;57.45;100049.89;115311;1199;103082;-78
2021/04/20 03:37:02;;;;;;;19.17;12.23;;;;;;;7.74;57.38;100050.81;115535;1199;103014;-80
2021/04/20 03:39:36;;;;;;;17.27;12.23;;;;;;;7.74;57.48;100049.08;115575;1199;103172;-79
2021/04/20 03:42:24;;;;;;;18.63;12.13;;;;;;;7.73;57.54;100054.30;115376;1198;102996;-79
2021/04/20 03:45:05;;;;;;;18.40;11.57;;;;;;;7.71;57.74;100046.52;115585;1199;103075;-79
2021/04/20 03:47:40;;;;;;;18.60;12.07;;;;;;;7.70;58.00;100055.20;115307;1199;103041;-79
2021/04/20 03:50:24;;;;;;;17.57;12.47;;;;;;;7.67;58.04;100039.70;115417;1198;103014;-79
2021/04/20 03:53:16;;;;;;;19.77;12.57;;;;;;;7.67;58.34;100042.30;115391;1199;103105;-79
2021/04/20 03:55:50;;;;;;;16.80;11.85;;;;;;;7.69;58.15;100045.70;115352;1198;103114;-79
2021/04/20 03:58:20;;;;;;;18.03;11.97;;;;;;;7.68;58.41;100038.81;115344;1198;103081;-78
2021/04/20 04:00:53;;;;;;;17.10;12.00;;;;;;;7.69;58.40;100047.45;115436;1199;103134;-79
2021/04/20 04:03:23;;;;;;;21.67;12.10;;;;;;;7.70;58.23;100057.80;115361;1199;103164;-79
2021/04/20 04:05:51;;;;;;;17.13;12.20;;;;;;;7.72;58.41;100048.27;115623;1199;101923;-78
2021/04/20 04:08:20;;;;;;;18.63;12.23;;;;;;;7.75;58.68;100048.19;115362;1199;102998;-78
2021/04/20 04:10:53;;;;;;;17.80;12.03;;;;;;;7.77;58.73;100049.00;115388;1199;103053;-78
2021/04/20 04:13:24;;;;;;;16.73;12.40;;;;;;;7.80;58.46;100048.92;115545;1199;103047;-78
2021/04/20 04:15:59;;;;;;;19.67;12.90;;;;;;;7.85;58.32;100054.84;115343;1199;103525;-77
2021/04/20 04:18:30;;;;;;;19.10;12.40;;;;;;;7.91;58.82;100050.41;115299;1199;103194;-78
2021/04/20 04:21:00;;;;;;;17.00;11.80;;;;;;;7.97;58.59;100050.26;115370;1199;103008;-79
2021/04/20 04:23:36;;;;;;;20.67;14.03;;;;;;;8.00;58.47;100043.23;115327;1198;103028;-78
2021/04/20 04:26:11;;;;;;;16.73;11.90;;;;;;;8.08;58.33;100045.66;115385;1198;103110;-78
2021/04/20 04:28:42;;;;;;;17.37;12.53;;;;;;;8.19;58.36;100047.07;115287;1199;103072;-78
2021/04/20 04:31:10;;;;;;;17.13;12.77;;;;;;;8.36;58.17;100041.47;115307;1199;103048;-78
2021/04/20 04:33:40;;;;;;;17.70;11.93;;;;;;;9.26;58.29;100040.67;115375;1200;103059;-77
2021/04/20 04:36:10;;;;;;;18.93;12.03;;;;;;;10.95;57.10;100036.77;115366;1199;102922;-78
2021/04/20 04:38:39;;;;;;;14.20;10.40;;;;;;;12.66;54.81;100035.95;115630;1199;102990;-78
2021/04/20 04:41:08;;;;;;;16.03;10.67;;;;;;;14.28;52.21;100033.53;115348;1200;103149;-78
2021/04/20 04:43:36;;;;;;;16.13;9.33;;;;;;;15.84;50.06;100031.28;115358;1199;103111;-78
2021/04/20 04:46:03;;;;;;;14.45;9.55;;;;;;;17.29;47.79;100030.45;115363;1199;103024;-78
2021/04/20 04:48:31;;;;;;;18.17;12.27;;;;;;;18.66;45.33;100027.49;115303;1200;103021;-79
2021/04/20 04:51:01;;;;;;;28.37;18.77;;;;;;;19.92;43.19;100020.20;115409;1197;103014;-78
2021/04/20 04:53:30;;;;;;;15.73;10.37;;;;;;;21.11;41.01;100015.49;115338;1200;103098;-79
2021/04/20 04:56:00;;;;;;;11.93;7.80;;;;;;;22.22;39.42;100011.70;115494;1200;103137;-78
2021/04/20 04:58:33;;;;;;;10.67;7.73;;;;;;;23.27;37.05;100009.72;115300;1199;103060;-79
2021/04/20 05:01:03;;;;;;;9.90;6.60;;;;;;;24.26;35.51;100006.04;115312;1199;103759;-79
2021/04/20 05:03:30;;;;;;;11.80;7.65;;;;;;;25.16;34.71;99999.34;115309;1199;101874;-79
2021/04/20 05:05:59;;;;;;;11.10;7.10;;;;;;;26.03;33.04;99996.05;115367;1199;103696;-79
2021/04/20 05:08:28;;;;;;;13.17;7.17;;;;;;;26.77;31.94;99998.28;115315;1198;103011;-79
2021/04/20 05:11:02;;;;;;;9.50;6.67;;;;;;;27.46;30.55;99993.70;115254;1199;103012;-78
2021/04/20 05:13:33;;;;;;;11.30;7.23;;;;;;;28.07;29.52;99995.98;115414;1199;103140;-79
2021/04/20 05:16:08;;;;;;;11.00;7.00;;;;;;;28.73;28.21;99997.60;115261;1199;103014;-78
2021/04/20 05:18:37;;;;;;;10.50;7.10;;;;;;;29.42;27.33;99995.13;115341;1199;103034;-80
2021/04/20 05:21:06;;;;;;;9.70;6.50;;;;;;;30.01;27.12;99993.58;115249;1200;103596;-79
2021/04/20 05:23:33;;;;;;;11.80;6.33;;;;;;;30.57;25.54;99985.17;115369;1197;103190;-80
2021/04/20 05:26:00;;;;;;;9.00;6.17;;;;;;;31.01;25.21;99989.73;115428;1199;103078;-79
2021/04/20 05:28:28;;;;;;;12.20;6.05;;;;;;;31.63;24.40;99987.39;115573;1199;102961;-79
2021/04/20 05:30:56;;;;;;;8.73;6.00;;;;;;;31.99;24.01;99991.91;115462;1200;103120;-79
2021/04/20 05:33:23;;;;;;;18.05;14.80;;;;;;;32.61;23.39;99993.85;115298;1198;103031;-80
2021/04/20 05:35:50;;;;;;;15.33;11.23;;;;;;;33.23;22.99;99982.98;115308;1198;103179;-80
2021/04/20 05:38:20;;;;;;;7.03;6.33;;;;;;;33.89;22.40;99982.33;115343;1200;103034;-80
2021/04/20 05:40:47;;;;;;;8.83;6.00;;;;;;;34.39;21.44;99980.90;115426;1200;103496;-79
2021/04/20 05:43:15;;;;;;;8.23;5.13;;;;;;;34.80;20.84;99983.30;115423;1199;103014;-80
2021/04/20 05:45:42;;;;;;;8.20;5.23;;;;;;;35.29;20.52;99981.88;115511;1200;103127;-79
2021/04/20 05:48:10;;;;;;;11.57;5.10;;;;;;;35.88;20.57;99990.75;115280;1199;103028;-80
2021/04/20 05:50:38;;;;;;;8.03;4.80;;;;;;;36.48;19.78;99988.39;115299;1199;103085;-79
2021/04/20 05:53:05;;;;;;;5.33;4.53;;;;;;;36.85;18.73;99981.95;115327;1198;102983;-81
2021/04/20 05:55:32;;;;;;;8.83;4.73;;;;;;;37.17;18.55;99981.77;115304;1199;103149;-79
2021/04/20 05:58:00;;;;;;;10.00;4.63;;;;;;;37.41;18.11;99980.00;115245;1199;103161;-81
2021/04/20 06:00:27;;;;;;;5.77;3.97;;;;;;;37.51;17.54;99983.80;115264;1200;103540;-79
2021/04/20 06:02:56;;;;;;;7.67;3.70;;;;;;;37.77;17.20;99981.80;115525;1197;103514;-79
2021/04/20 06:05:26;;;;;;;8.67;4.03;;;;;;;38.05;16.76;99979.22;115557;1199;103050;-79
2021/04/20 06:07:56;;;;;;;7.10;3.93;;;;;;;38.24;16.64;99982.70;115326;1199;102951;-80
2021/04/20 06:10:24;;;;;;;4.07;3.67;;;;;;;38.54;16.06;99979.02;115549;1199;100625;-79
2021/04/20 06:12:52;;;;;;;5.40;2.90;;;;;;;38.70;15.74;99970.14;115473;1199;103056;-80
2021/04/20 06:15:21;;;;;;;4.65;3.50;;;;;;;38.78;15.56;99969.76;115524;1199;103033;-80
2021/04/20 06:17:52;;;;;;;4.93;3.50;;;;;;;38.99;15.66;99979.22;115483;1199;103085;-80
2021/04/20 06:20:22;;;;;;;4.37;3.20;;;;;;;39.17;15.56;99972.78;115362;1199;102983;-79
2021/04/20 06:22:53;;;;;;;6.33;3.10;;;;;;;39.36;15.41;99966.06;115299;1199;103206;-79
2021/04/20 06:25:21;;;;;;;3.47;2.83;;;;;;;39.35;14.90;99964.41;115470;1199;103204;-80
2021/04/20 06:27:49;;;;;;;5.73;2.87;;;;;;;39.34;14.65;99960.02;115394;1199;103124;-81
2021/04/20 06:30:19;;;;;;;7.43;3.10;;;;;;;39.45;14.87;99959.11;115303;1198;101245;-79
2021/04/20 06:32:47;;;;;;;5.67;2.73;;;;;;;39.56;14.58;99960.99;115539;1200;101914;-80
2021/04/20 06:35:17;;;;;;;4.83;2.80;;;;;;;39.72;13.75;99964.82;115342;1198;103152;-79
2021/04/20 06:37:47;;;;;;;3.53;2.50;;;;;;;39.83;13.72;99965.80;115342;1200;103115;-79
2021/04/20 06:40:22;;;;;;;3.97;2.87;;;;;;;39.87;13.87;99959.62;115336;1199;103046;-80
2021/04/20 06:43:03;;;;;;;6.60;3.00;;;;;;;39.88;13.73;99964.00;115285;1197;103082;-79
2021/04/20 06:45:38;;;;;;;4.80;2.93;;;;;;;39.92;13.99;99963.50;115351;1198;102964;-78
2021/04/20 06:48:33;;;;;;;3.15;2.50;;;;;;;40.08;13.63;99960.80;115306;1199;103059;-79
2021/04/20 06:51:03;;;;;;;2.80;2.50;;;;;;;40.12;13.03;99951.02;115619;1198;103037;-79
2021/04/20 06:53:38;;;;;;;4.93;2.90;;;;;;;40.17;13.11;99959.28;115275;1200;102983;-79
2021/04/20 06:56:06;;;;;;;4.08;2.65;;;;;;;40.12;12.71;99961.95;115387;1199;103108;-80
2021/04/20 06:58:57;;;;;;;2.70;2.30;;;;;;;40.27;12.89;99958.63;115516;1200;103030;-79
2021/04/20 07:01:39;;;;;;;5.93;2.90;;;;;;;40.46;12.82;99960.02;115269;1199;103057;-79
2021/04/20 07:04:14;;;;;;;3.07;2.57;;;;;;;40.73;12.99;99962.82;115316;1199;103024;-79
2021/04/20 07:07:06;;;;;;;4.03;2.50;;;;;;;40.91;12.58;99952.67;115543;1199;102974;-80
2021/04/20 07:09:40;;;;;;;4.13;2.17;;;;;;;40.97;12.34;99948.94;115298;1199;103019;-79
2021/04/20 07:12:11;;;;;;;2.33;1.90;;;;;;;41.11;12.03;99955.64;115310;1200;102966;-79
2021/04/20 07:14:50;;;;;;;2.60;2.40;;;;;;;41.33;12.39;99956.47;115315;1199;103232;-79
2021/04/20 07:17:36;;;;;;;5.53;2.37;;;;;;;41.48;12.50;99946.77;115402;1198;103021;-80
2021/04/20 07:20:31;;;;;;;4.17;2.37;;;;;;;41.58;12.15;99950.41;115361;1200;103408;-80
2021/04/20 07:23:30;;;;;;;3.87;2.40;;;;;;;41.59;12.54;99949.32;115285;1198;100698;-79
2021/04/20 07:26:14;;;;;;;2.90;2.60;;;;;;;41.61;12.21;99941.67;115319;1199;101955;-80
2021/04/20 07:28:54;;;;;;;4.70;2.30;;;;;;;41.61;11.93;99943.58;115536;1199;103398;-80
2021/04/20 07:32:01;;;;;;;4.43;2.80;;;;;;;41.48;11.97;99944.86;115563;1199;103204;-80
2021/04/20 07:35:10;;;;;;;2.87;2.40;;;;;;;40.58;11.76;99951.72;115311;1199;103079;-80
2021/04/20 07:37:47;;;;;;;5.27;2.50;;;;;;;40.49;12.44;99947.75;115525;1198;103063;-80
2021/04/20 07:40:26;;;;;;;2.90;2.50;;;;;;;40.90;12.52;99943.64;115257;1197;102476;-79
2021/04/20 07:43:26;;;;;;;7.83;2.30;;;;;;;41.16;11.63;99950.24;115521;1198;104593;-80
2021/04/20 07:46:19;;;;;;;5.37;4.47;;;;;;;41.28;11.74;99937.25;115373;1199;103293;-80
2021/04/20 07:48:51;;;;;;;3.30;2.50;;;;;;;41.25;11.83;99934.20;115596;1199;103091;-81
2021/04/20 07:51:51;;;;;;;2.93;2.40;;;;;;;41.02;11.63;99947.08;115433;1199;103513;-80
2021/04/20 07:54:53;;;;;;;3.70;2.60;;;;;;;40.00;11.90;99939.34;115393;1199;102977;-80
2021/04/20 07:57:27;;;;;;;3.63;2.70;;;;;;;39.22;12.21;99931.95;115279;1200;103033;-80
2021/04/20 08:00:14;;;;;;;5.67;2.90;;;;;;;38.69;12.39;99931.16;115361;1198;103635;-79
2021/04/20 08:03:05;;;;;;;3.70;2.90;;;;;;;38.90;12.64;99929.67;115390;1198;102876;-80
2021/04/20 08:06:16;;;;;;;6.93;3.30;;;;;;;38.70;12.28;99929.27;115300;1199;102992;-79
2021/04/20 08:08:56;;;;;;;6.17;3.43;;;;;;;37.90;12.25;99924.42;115360;1199;103092;-79
2021/04/20 08:11:31;;;;;;;5.10;3.37;;;;;;;37.63;12.75;99925.88;115279;1200;103101;-80
2021/04/20 08:14:15;;;;;;;4.87;3.17;;;;;;;36.83;12.84;99928.88;115541;1199;103015;-80
2021/04/20 08:16:52;;;;;;;10.27;4.67;;;;;;;35.45;12.95;99925.51;115533;1199;103063;-80
2021/04/20 08:19:28;;;;;;;5.87;4.47;;;;;;;34.01;13.48;99926.56;115337;1200;103114;-79
2021/04/20 08:21:57;;;;;;;7.65;3.93;;;;;;;32.91;13.97;99932.35;115270;1199;103008;-80
2021/04/20 08:24:54;;;;;;;8.50;3.93;;;;;;;32.57;15.05;99930.49;115346;1200;103014;-80
2021/04/20 08:27:53;;;;;;;6.00;3.40;;;;;;;32.28;15.28;99926.98;115495;1199;103024;-80
2021/04/20 08:30:47;;;;;;;5.07;3.60;;;;;;;32.06;15.77;99931.58;115317;1199;102998;-80
2021/04/20 08:33:19;;;;;;;5.10;3.27;;;;;;;32.01;16.12;99923.25;115397;1197;103073;-80
2021/04/20 08:35:49;;;;;;;6.50;3.97;;;;;;;32.09;15.80;99922.25;115589;1199;103050;-80
2021/04/20 08:38:44;;;;;;;6.97;3.70;;;;;;;32.17;15.88;99924.82;115284;1199;102990;-80
2021/04/20 08:41:30;;;;;;;4.60;4.00;;;;;;;32.06;15.89;99923.48;115541;1199;103086;-80
2021/04/20 08:44:10;;;;;;;4.55;3.70;;;;;;;32.46;15.87;99921.08;115322;1200;102983;-79
2021/04/20 08:47:04;;;;;;;4.57;3.47;;;;;;;33.05;15.96;99913.29;115358;1199;101856;-80
2021/04/20 08:49:47;;;;;;;5.50;3.93;;;;;;;33.46;14.95;99906.95;115668;1199;102018;-80
2021/04/20 08:52:50;;;;;;;4.00;3.30;;;;;;;33.77;15.61;99905.53;115454;1199;103127;-80
2021/04/20 08:55:46;;;;;;;5.40;4.00;;;;;;;33.85;14.14;99903.47;115306;1198;103035;-80
2021/04/20 08:58:43;;;;;;;5.55;4.15;;;;;;;33.54;14.98;99900.51;115345;1199;103011;-80
2021/04/20 09:01:29;;;;;;;4.57;3.70;;;;;;;33.05;14.56;99907.89;115436;1198;103028;-80
2021/04/20 09:04:15;;;;;;;3.90;3.45;;;;;;;32.44;14.91;99909.64;115653;1198;102990;-81
2021/04/20 09:06:51;;;;;;;5.10;3.50;;;;;;;32.12;15.63;99919.16;115438;1200;103133;-80
2021/04/20 09:09:24;;;;;;;4.95;3.48;;;;;;;31.90;15.61;99909.45;115404;1199;102990;-79
2021/04/20 09:11:59;;;;;;;7.57;4.00;;;;;;;31.84;15.61;99909.21;115483;1198;103027;-79
2021/04/20 09:14:39;;;;;;;6.23;4.27;;;;;;;31.76;15.81;99901.25;115426;1199;103070;-80
2021/04/20 09:17:13;;;;;;;6.37;3.73;;;;;;;31.68;15.81;99906.76;115421;1199;103015;-80
2021/04/20 09:20:01;;;;;;;5.20;4.17;;;;;;;31.66;15.68;99903.42;115401;1199;103516;-79
2021/04/20 09:22:59;;;;;;;7.90;3.60;;;;;;;31.57;16.16;99901.88;115359;1199;103124;-79
2021/04/20 09:25:50;;;;;;;4.70;3.77;;;;;;;31.47;15.29;99901.38;115544;1198;103040;-80
2021/04/20 09:28:39;;;;;;;6.37;3.97;;;;;;;31.10;16.07;99897.87;115556;1197;102024;-79
2021/04/20 09:31:16;;;;;;;6.50;3.40;;;;;;;31.34;16.81;99890.47;115514;1199;103018;-80
2021/04/20 09:33:52;;;;;;;4.20;3.80;;;;;;;31.68;16.27;99890.58;115323;1200;103046;-79
2021/04/20 09:36:21;;;;;;;3.77;3.40;;;;;;;31.96;16.16;99889.78;115348;1199;103057;-79
2021/04/20 09:38:50;;;;;;;4.57;4.17;;;;;;;32.08;15.62;99889.05;115364;1199;102986;-80
2021/04/20 09:41:29;;;;;;;7.30;5.30;;;;;;;31.84;15.41;99884.94;115356;1199;103031;-79
2021/04/20 09:44:06;;;;;;;5.80;4.13;;;;;;;31.42;15.19;99887.63;115510;1198;103021;-79
2021/04/20 09:46:34;;;;;;;6.40;4.15;;;;;;;31.35;16.16;99882.19;115337;1198;103030;-79
2021/04/20 09:49:27;;;;;;;5.17;4.43;;;;;;;31.60;15.20;99890.73;115356;1199;103044;-80
2021/04/20 09:52:02;;;;;;;4.33;3.80;;;;;;;31.52;16.64;99871.98;115418;1198;103394;-79
2021/04/20 09:54:40;;;;;;;3.87;3.53;;;;;;;31.73;16.32;99880.07;115337;1198;103284;-79
2021/04/20 09:57:13;;;;;;;5.53;3.57;;;;;;;31.52;16.18;99877.38;115424;1198;103108;-79
2021/04/20 10:00:03;;;;;;;5.27;4.50;;;;;;;31.41;15.44;99873.33;115533;1199;102999;-79
2021/04/20 10:02:43;;;;;;;5.37;4.20;;;;;;;31.06;16.33;99872.34;115397;1200;102980;-77
2021/04/20 10:05:18;;;;;;;7.40;4.60;;;;;;;30.60;16.66;99867.20;115420;1200;103143;-79
2021/04/20 10:08:04;;;;;;;5.50;3.90;;;;;;;30.12;17.93;99873.15;115519;1199;101148;-81
2021/04/20 10:10:40;;;;;;;7.13;4.70;;;;;;;29.89;17.42;99874.02;115582;1199;103076;-82
2021/04/20 10:13:25;;;;;;;5.45;4.48;;;;;;;29.43;17.65;99874.05;115715;1199;103506;-80
2021/04/20 10:16:01;;;;;;;7.20;4.30;;;;;;;28.93;17.82;99866.52;115510;1200;103008;-80
2021/04/20 10:18:37;;;;;;;13.38;7.68;;;;;;;28.39;18.18;99865.57;115720;1199;103104;-82
2021/04/20 10:21:47;;;;;;;7.20;5.03;;;;;;;27.82;18.68;99871.01;115617;1198;103115;-81
2021/04/20 10:24:19;;;;;;;5.43;4.30;;;;;;;27.51;18.97;99862.81;115682;1200;101858;-81
2021/04/20 10:26:54;;;;;;;5.40;4.33;;;;;;;26.98;19.23;99864.05;115713;1199;103159;-83
2021/04/20 10:29:24;;;;;;;6.45;4.45;;;;;;;26.44;19.69;99863.54;115598;1197;103027;-81
2021/04/20 10:32:07;;;;;;;7.40;4.43;;;;;;;26.00;19.91;99860.08;115578;1198;102990;-81
2021/04/20 10:34:45;;;;;;;5.25;4.75;;;;;;;25.63;20.22;99863.80;115550;1198;103101;-80
2021/04/20 10:37:14;;;;;;;6.97;4.83;;;;;;;25.29;20.14;99856.50;115547;1199;103008;-81
2021/04/20 10:39:53;;;;;;;7.33;4.80;;;;;;;25.21;20.44;99858.27;115634;1199;103143;-81
2021/04/20 10:42:29;;;;;;;7.50;5.20;;;;;;;25.47;20.35;99855.65;115588;1198;100645;-81
2021/04/20 10:44:58;;;;;;;6.85;5.78;;;;;;;25.43;20.21;99854.28;115569;1197;102970;-82
2021/04/20 10:47:26;;;;;;;5.70;5.03;;;;;;;25.33;20.58;99853.55;115559;1197;103111;-81
2021/04/20 10:49:59;;;;;;;7.30;5.20;;;;;;;25.34;20.53;99842.72;115790;1199;103085;-81
2021/04/20 10:52:35;;;;;;;6.80;5.60;;;;;;;25.16;20.23;99844.55;115497;1199;103020;-81
2021/04/20 10:55:07;;;;;;;7.50;5.20;;;;;;;24.58;20.29;99836.88;115649;1199;103023;-81
2021/04/20 10:57:38;;;;;;;7.50;5.57;;;;;;;23.97;20.33;99838.23;115574;1199;103095;-82
2021/04/20 11:00:08;;;;;;;8.83;5.57;;;;;;;23.59;21.31;99851.63;115566;1199;103092;-82
2021/04/20 11:02:41;;;;;;;7.87;5.67;;;;;;;23.15;20.96;99848.52;115596;1198;103108;-81
2021/04/20 11:05:10;;;;;;;9.03;6.20;;;;;;;22.81;21.12;99851.55;115576;1199;102989;-82
2021/04/20 11:07:42;;;;;;;9.63;5.60;;;;;;;22.70;21.83;99843.67;115564;1199;102966;-80
2021/04/20 11:10:13;;;;;;;10.57;5.87;;;;;;;22.55;21.92;99839.71;115635;1198;101524;-82
2021/04/20 11:12:40;;;;;;;7.90;6.00;;;;;;;22.21;22.24;99841.82;115580;1197;103100;-81
2021/04/20 11:15:09;;;;;;;9.13;6.23;;;;;;;22.11;22.97;99836.48;115577;1198;101926;-82
2021/04/20 11:17:42;;;;;;;8.67;6.30;;;;;;;22.20;22.59;99838.33;115601;1199;103040;-81
2021/04/20 11:20:11;;;;;;;8.17;6.60;;;;;;;22.05;22.42;99830.84;115597;1199;103108;-82
2021/04/20 11:23:14;;;;;;;9.67;6.67;;;;;;;21.98;22.81;99831.34;115503;1198;103159;-81
2021/04/20 11:25:53;;;;;;;10.33;6.23;;;;;;;21.96;22.56;99827.14;115220;1203;103162;-81
2021/04/20 11:28:43;;;;;;;10.73;5.97;;;;;;;21.95;22.59;99826.31;115201;1203;103041;-81
2021/04/20 11:31:28;;;;;;;7.85;5.30;;;;;;;22.09;22.65;99819.84;115222;1202;102993;-82
2021/04/20 11:34:14;;;;;;;13.00;7.20;;;;;;;22.08;22.73;99814.64;115272;1202;103009;-81
2021/04/20 11:37:10;;;;;;;9.83;5.37;;;;;;;22.02;22.36;99815.98;115201;1201;102995;-82
2021/04/20 11:39:43;;;;;;;9.95;6.55;;;;;;;22.00;23.17;99805.50;115285;1203;103035;-81
2021/04/20 11:42:29;;;;;;;7.30;6.00;;;;;;;22.01;23.03;99806.34;115277;1202;102993;-82
2021/04/20 11:45:03;;;;;;;9.20;5.65;;;;;;;21.90;23.82;99799.32;115153;1201;103197;-82